Time;durP1;ratioP1;P1;durP2;ratioP2;P2;SDS_P1;SDS_P2;PMS_P1;PMS_P2;Temp;Humidity;BMP_temperature;BMP_pressure;BME280_temperature;BME280_humidity;BME280_pressure;Samples;Min_cycle;Max_cycle;Signal;HPM_P1;HPM_P2
2021/06/07 02:24:22;;;;;;;;;;;;;;;13.04;100.00;100119.91;5520033;23;19937;-82
2021/06/07 02:26:49;;;;;;;;;;;;;;;12.99;100.00;100120.09;4981518;28;19926;-82
2021/06/07 02:29:15;;;;;;;;;;;;;;;13.02;100.00;100114.66;4964624;28;19926;-82
2021/06/07 02:31:40;;;;;;;;;;;;;;;13.00;100.00;100112.97;4981341;28;19930;-83
2021/06/07 02:34:07;;;;;;;;;;;;;;;13.02;100.00;100113.75;4964083;28;19914;-83
2021/06/07 02:36:33;;;;;;;;;;;;;;;13.04;100.00;100117.22;4981390;28;19922;-83
2021/06/07 02:38:59;;;;;;;;;;;;;;;13.00;100.00;100113.88;4981508;28;19914;-83
2021/06/07 02:41:25;;;;;;;;;;;;;;;13.04;100.00;100114.56;4981123;28;19926;-83
2021/06/07 02:43:51;;;;;;;;;;;;;;;12.99;100.00;100113.94;4964360;28;19926;-87
2021/06/07 02:46:47;;;;;;;;;;;;;;;13.00;100.00;100112.97;4964489;28;19921;-82
2021/06/07 02:49:12;;;;;;;;;;;;;;;12.98;100.00;100109.53;4981335;28;19989;-83
2021/06/07 02:51:38;;;;;;;;;;;;;;;12.97;100.00;100110.47;4981484;28;20234;-84
2021/06/07 02:54:04;;;;;;;;;;;;;;;12.98;100.00;100113.06;4979548;28;20017;-83
2021/06/07 02:56:29;;;;;;;;;;;;;;;13.03;100.00;100111.03;4981333;28;19919;-83
2021/06/07 02:58:54;;;;;;;;;;;;;;;13.03;100.00;100116.34;4980715;28;20387;-83
2021/06/07 03:01:20;;;;;;;;;;;;;;;13.00;100.00;100111.22;4981426;28;20305;-84
2021/06/07 03:03:45;;;;;;;;;;;;;;;13.03;100.00;100116.34;4980601;28;20249;-82
2021/06/07 03:06:10;;;;;;;;;;;;;;;12.98;100.00;100117.53;4980764;28;19922;-83
2021/06/07 03:08:36;;;;;;;;;;;;;;;12.96;100.00;100117.59;4981035;28;19929;-83
2021/06/07 03:11:03;;;;;;;;;;;;;;;12.96;100.00;100114.94;4980725;28;20281;-83
2021/06/07 03:13:29;;;;;;;;;;;;;;;13.00;100.00;100111.22;4980539;28;19933;-85
2021/06/07 03:15:55;;;;;;;;;;;;;;;13.03;100.00;100110.19;4980743;28;20273;-83
2021/06/07 03:18:21;;;;;;;;;;;;;;;13.07;100.00;100117.09;4980465;28;20277;-83
2021/06/07 03:20:46;;;;;;;;;;;;;;;13.01;100.00;100117.38;4980546;28;19937;-83
2021/06/07 03:23:14;;;;;;;;;;;;;;;13.03;100.00;100112.84;4980098;28;19973;-83
2021/06/07 03:25:40;;;;;;;;;;;;;;;13.01;100.00;100117.38;4980536;28;19992;-84
2021/06/07 03:28:06;;;;;;;;;;;;;;;12.99;100.00;100109.47;4980999;28;19968;-83
2021/06/07 03:30:32;;;;;;;;;;;;;;;13.04;100.00;100111.91;4980241;28;19922;-83
2021/06/07 03:32:57;;;;;;;;;;;;;;;12.97;100.00;100113.13;4980656;28;20004;-83
2021/06/07 03:35:22;;;;;;;;;;;;;;;13.05;100.00;100118.94;4980299;28;19925;-82
2021/06/07 03:37:48;;;;;;;;;;;;;;;13.03;100.00;100111.03;4980523;28;19922;-82
2021/06/07 03:40:27;;;;;;;;;;;;;;;13.05;100.00;100113.63;4979974;28;20321;-84
2021/06/07 03:42:52;;;;;;;;;;;;;;;13.03;100.00;100108.38;4963090;28;19929;-84
2021/06/07 03:45:18;;;;;;;;;;;;;;;13.05;100.00;100108.28;4981800;28;19918;-83
2021/06/07 03:47:45;;;;;;;;;;;;;;;13.00;100.00;100111.22;4981230;28;19922;-85
2021/06/07 07:50:44;;;;;;;;;;;;;;;13.22;100.00;100134.09;1445531;26;20603;-84
2021/06/07 07:53:09;;;;;;;;;;;;;;;13.21;100.00;100135.03;4980884;28;20072;-85
2021/06/07 07:55:35;;;;;;;;;;;;;;;13.23;100.00;100139.34;4963735;28;20080;-83
2021/06/07 07:58:03;;;;;;;;;;;;;;;13.30;100.00;100145.22;4963922;28;19962;-85
2021/06/07 08:00:29;;;;;;;;;;;;;;;13.38;100.00;100143.09;4981337;28;19933;-83
2021/06/07 08:02:55;;;;;;;;;;;;;;;13.36;100.00;100138.78;4963173;28;19922;-86
2021/06/07 08:05:20;;;;;;;;;;;;;;;13.38;100.00;100137.75;4979529;28;19922;-84
2021/06/07 08:07:46;;;;;;;;;;;;;;;13.38;100.00;100148.41;4979777;28;20297;-83
2021/06/07 08:10:12;;;;;;;;;;;;;;;13.36;100.00;100141.44;4962781;28;19958;-83
2021/06/07 08:12:38;;;;;;;;;;;;;;;13.38;100.00;100137.75;4979686;28;19961;-83
2021/06/07 08:15:05;;;;;;;;;;;;;;;13.33;100.00;100134.47;4979024;28;20430;-83
2021/06/07 08:17:30;;;;;;;;;;;;;;;13.40;100.00;100146.56;4979278;28;19922;-82
2021/06/07 08:19:55;;;;;;;;;;;;;;;13.39;100.00;100141.31;4979937;28;20269;-83
2021/06/07 08:22:21;;;;;;;;;;;;;;;13.46;100.00;100140.06;4978576;28;20297;-84
2021/06/07 08:24:46;;;;;;;;;;;;;;;13.44;100.00;100141.94;4979553;28;19922;-83
2021/06/07 08:27:11;;;;;;;;;;;;;;;13.49;100.00;100137.25;4979669;28;19922;-84
2021/06/07 08:29:37;;;;;;;;;;;;;;;13.40;100.00;100130.59;4977568;28;19922;-83
2021/06/07 08:32:03;;;;;;;;;;;;;;;13.35;100.00;100134.41;4967497;28;20064;-83
2021/06/07 08:34:30;;;;;;;;;;;;;;;13.33;100.00;100128.28;4967341;28;19937;-83
2021/06/07 08:36:56;;;;;;;;;;;;;;;13.31;100.00;100127.47;4960599;28;19929;-83
2021/06/07 08:39:21;;;;;;;;;;;;;;;13.52;100.00;100134.44;4979519;28;19926;-83
2021/06/07 08:41:47;;;;;;;;;;;;;;;13.50;100.00;100136.31;4962028;28;19929;-84
2021/06/07 08:44:13;;;;;;;;;;;;;;;13.43;100.00;100133.09;4978901;28;19922;-83
2021/06/07 08:46:38;;;;;;;;;;;;;;;13.58;100.00;100131.47;4963042;28;20182;-84
2021/06/07 08:49:04;;;;;;;;;;;;;;;13.51;100.00;100131.84;4966758;28;19929;-82
2021/06/07 08:51:29;;;;;;;;;;;;;;;13.45;100.00;100135.69;4983684;28;20177;-86
2021/06/07 08:53:55;;;;;;;;;;;;;;;13.62;100.00;100135.72;4983149;28;20320;-83
2021/06/07 08:56:21;;;;;;;;;;;;;;;13.58;100.00;100135.94;4983778;28;19925;-83
2021/06/07 08:58:47;;;;;;;;;;;;;;;13.53;100.00;100140.59;4983971;28;20020;-85
2021/06/07 09:01:13;;;;;;;;;;;;;;;13.59;100.00;100142.97;4983667;28;20256;-85
2021/06/07 09:03:39;;;;;;;;;;;;;;;13.64;100.00;100138.28;4979733;28;20010;-84
2021/06/07 09:06:04;;;;;;;;;;;;;;;13.63;100.00;100137.41;4947484;29;19965;-83
2021/06/07 09:08:34;;;;;;;;;;;;;;;13.73;100.00;100140.47;4968013;28;19933;-84
2021/06/07 09:11:06;;;;;;;;;;;;;;;13.75;100.00;100140.41;4983421;28;20213;-82
2021/06/07 09:13:31;;;;;;;;;;;;;;;13.83;100.00;100135.53;4983584;28;19922;-82
2021/06/07 09:15:58;;;;;;;;;;;;;;;13.79;100.00;100134.00;4982159;28;20248;-84
2021/06/07 09:18:39;;;;;;;;;;;;;;;13.76;100.00;100135.00;4965841;28;19952;-84
2021/06/07 09:21:05;;;;;;;;;;;;;;;13.66;100.00;100132.88;4982305;28;19936;-86
2021/06/07 09:23:48;;;;;;;;;;;;;;;13.68;100.00;100131.00;4966061;28;20052;-82
2021/06/07 09:26:32;;;;;;;;;;;;;;;13.60;100.00;100134.91;4983074;28;19933;-80
2021/06/07 09:28:58;;;;;;;;;;;;;;;13.59;100.00;100130.53;4983177;28;19929;-84
2021/06/07 09:31:31;;;;;;;;;;;;;;;13.56;100.00;100145.78;4972922;28;19958;-82
2021/06/07 09:33:56;;;;;;;;;;;;;;;13.52;100.00;100128.25;4954603;28;19949;-82
2021/06/07 09:36:27;;;;;;;;;;;;;;;13.56;100.00;100137.78;4978356;28;20305;-84
2021/06/07 09:39:02;;;;;;;;;;;;;;;13.59;100.00;100130.53;4956712;28;19926;-82
2021/06/07 09:41:29;;;;;;;;;;;;;;;13.73;100.00;100126.31;4970249;28;19922;-82
2021/06/07 09:43:56;;;;;;;;;;;;;;;13.71;100.00;100136.19;4974141;28;20029;-82
2021/06/07 09:46:25;;;;;;;;;;;;;;;13.61;100.00;100126.00;4971081;28;19922;-84
2021/06/07 09:48:50;;;;;;;;;;;;;;;13.66;100.00;100131.09;4980156;28;19922;-84
2021/06/07 09:51:19;;;;;;;;;;;;;;;13.61;100.00;100128.66;4973001;28;19933;-84
2021/06/07 09:53:52;;;;;;;;;;;;;;;13.39;100.00;100134.16;4948039;29;19922;-83
2021/06/07 09:56:17;;;;;;;;;;;;;;;13.55;100.00;100139.59;4963445;29;19933;-81
2021/06/07 09:58:46;;;;;;;;;;;;;;;13.81;100.00;100140.09;4962923;28;19926;-82
2021/06/07 10:01:16;;;;;;;;;;;;;;;13.77;100.00;100144.72;4983589;28;19988;-82
2021/06/07 10:03:48;;;;;;;;;;;;;;;13.77;100.00;100135.88;4969188;28;19985;-84
2021/06/07 10:06:19;;;;;;;;;;;;;;;13.71;100.00;100136.19;4964563;28;19990;-81
2021/06/07 10:08:45;;;;;;;;;;;;;;;13.77;100.00;100135.88;4965261;28;19922;-84
2021/06/07 10:11:40;;;;;;;;;;;;;;;13.67;100.00;100131.94;4971320;28;19923;-82
2021/06/07 10:14:10;;;;;;;;;;;;;;;13.61;100.00;100128.66;4957526;28;19926;-82
2021/06/07 10:16:36;;;;;;;;;;;;;;;13.57;100.00;100137.72;4972351;28;19933;-82
2021/06/07 10:19:05;;;;;;;;;;;;;;;13.60;100.00;100131.38;4975534;28;19976;-81
2021/06/07 10:21:31;;;;;;;;;;;;;;;13.61;100.00;100123.31;4967318;28;19998;-83
2021/06/07 10:23:57;;;;;;;;;;;;;;;13.70;100.00;100126.47;4971397;28;19938;-81
2021/06/07 10:26:22;;;;;;;;;;;;;;;13.44;100.00;100121.50;4956009;28;19930;-83
2021/06/07 10:28:51;;;;;;;;;;;;;;;13.48;100.00;100124.84;4974134;28;19922;-85
2021/06/07 10:31:18;;;;;;;;;;;;;;;13.45;100.00;100119.72;4971299;28;19937;-84
2021/06/07 10:33:56;;;;;;;;;;;;;;;13.32;100.00;100118.53;4979028;28;19922;-81
2021/06/07 10:36:21;;;;;;;;;;;;;;;13.48;100.00;100122.19;4975973;28;19977;-83
2021/06/07 10:38:47;;;;;;;;;;;;;;;13.62;100.00;100117.06;4974565;28;19988;-82
2021/06/07 10:41:23;;;;;;;;;;;;;;;13.58;100.00;100120.81;4972624;28;20003;-83
2021/06/07 10:43:55;;;;;;;;;;;;;;;13.61;100.00;100115.34;4972592;28;20296;-84
2021/06/07 10:46:30;;;;;;;;;;;;;;;13.50;100.00;100114.13;4976456;28;20134;-81
2021/06/07 10:48:56;;;;;;;;;;;;;;;13.73;100.00;100115.66;4973738;28;20477;-82
2021/06/07 10:51:26;;;;;;;;;;;;;;;13.90;100.00;100118.31;4972638;28;19926;-83
2021/06/07 10:53:53;;;;;;;;;;;;;;;13.80;100.00;100107.28;4972478;28;19929;-82
2021/06/07 10:56:24;;;;;;;;;;;;;;;13.72;100.00;100114.81;4970047;28;19923;-84
2021/06/07 10:58:51;;;;;;;;;;;;;;;13.80;100.00;100123.25;4974463;28;19933;-82
2021/06/07 11:01:16;;;;;;;;;;;;;;;13.68;100.00;100117.69;4978537;28;19922;-84
2021/06/07 11:03:52;;;;;;;;;;;;;;;13.76;100.00;100123.50;4971435;28;19976;-85
2021/06/07 11:06:18;;;;;;;;;;;;;;;13.75;100.00;100119.09;4973034;28;19926;-84
2021/06/07 11:08:46;;;;;;;;;;;;;;;13.81;100.00;100129.44;4954383;28;20294;-82
2021/06/07 11:11:13;;;;;;;;;;;;;;;13.80;100.00;100122.38;4974084;28;19933;-82
2021/06/07 11:13:47;;;;;;;;;;;;;;;13.79;100.00;100126.00;4979832;28;19926;-82
2021/06/07 11:16:27;;;;;;;;;;;;;;;13.69;100.00;100119.41;4954501;28;19922;-82
2021/06/07 11:18:59;;;;;;;;;;;;;;;13.92;100.00;100120.91;4973596;28;20032;-81
2021/06/07 11:21:26;;;;;;;;;;;;;;;13.86;100.00;100121.22;4971801;28;19969;-82
2021/06/07 11:23:52;;;;;;;;;;;;;;;13.86;100.00;100114.09;4957651;28;19976;-84
2021/06/07 11:26:20;;;;;;;;;;;;;;;13.87;100.00;100120.28;4972373;28;19923;-82
2021/06/07 11:28:47;;;;;;;;;;;;;;;13.88;100.00;100114.00;4957308;28;20316;-83
2021/06/07 11:31:15;;;;;;;;;;;;;;;13.80;100.00;100112.63;4958706;28;20241;-83
2021/06/07 11:33:51;;;;;;;;;;;;;;;13.76;100.00;100103.03;4952161;28;20041;-82
2021/06/07 11:36:35;;;;;;;;;;;;;;;13.70;100.00;100110.50;4973465;28;20205;-82
2021/06/07 11:39:01;;;;;;;;;;;;;;;13.61;100.00;100110.00;4955091;28;19933;-83
2021/06/07 11:41:54;;;;;;;;;;;;;;;13.69;100.00;100116.75;4955087;28;20017;-82
2021/06/07 11:44:20;;;;;;;;;;;;;;;13.83;100.00;100111.56;4951638;28;19930;-81
2021/06/07 11:46:46;;;;;;;;;;;;;;;13.79;100.00;100104.69;4967706;28;19930;-83
2021/06/07 11:49:15;;;;;;;;;;;;;;;13.85;100.00;100109.72;4969407;28;19926;-82
2021/06/07 11:51:42;;;;;;;;;;;;;;;13.75;100.00;100100.47;4969279;28;20205;-83
2021/06/07 11:54:26;;;;;;;;;;;;;;;13.75;100.00;100100.47;4969538;28;19926;-81
2021/06/07 11:56:52;;;;;;;;;;;;;;;13.75;100.00;100095.13;4972195;28;20009;-82
2021/06/07 11:59:44;;;;;;;;;;;;;;;13.70;100.00;100099.84;4969383;28;20005;-82
2021/06/07 12:02:13;;;;;;;;;;;;;;;13.70;100.00;100105.16;4963555;28;19922;-84
2021/06/07 12:04:40;;;;;;;;;;;;;;;13.70;100.00;100106.00;4957375;28;19946;-85
2021/06/07 12:07:06;;;;;;;;;;;;;;;13.83;100.00;100100.06;4969834;28;20009;-82
2021/06/07 12:09:32;;;;;;;;;;;;;;;13.80;100.00;100109.06;4970346;28;19954;-82
2021/06/07 12:11:58;;;;;;;;;;;;;;;13.94;100.00;100111.03;4968959;28;20021;-82
2021/06/07 12:14:28;;;;;;;;;;;;;;;13.74;100.00;100102.28;4950268;29;19968;-82
2021/06/07 12:16:54;;;;;;;;;;;;;;;13.70;100.00;100105.16;4952634;28;19926;-81
2021/06/07 12:19:29;;;;;;;;;;;;;;;13.79;100.00;100102.88;4971641;28;19945;-83
2021/06/07 12:21:55;;;;;;;;;;;;;;;13.85;100.00;100098.19;4970912;28;19973;-81
2021/06/07 12:24:20;;;;;;;;;;;;;;;13.80;100.00;100090.41;4969266;28;19970;-83
2021/06/07 12:29:37;;;;;;;;;;;;;;;13.77;100.00;100093.28;4975032;28;20041;-82
2021/06/07 12:32:05;;;;;;;;;;;;;;;13.78;100.00;100094.97;4973264;28;20272;-82
2021/06/07 12:34:30;;;;;;;;;;;;;;;13.91;100.00;100103.19;4973162;28;20228;-80
2021/06/07 12:36:56;;;;;;;;;;;;;;;13.77;100.00;100095.94;4973302;28;19926;-83
2021/06/07 12:39:21;;;;;;;;;;;;;;;13.75;100.00;100090.69;4974817;28;20032;-82
2021/06/07 12:41:47;;;;;;;;;;;;;;;13.85;100.00;100096.41;4976486;28;19926;-79
2021/06/07 12:44:13;;;;;;;;;;;;;;;13.80;100.00;100091.31;4971709;28;20290;-81
2021/06/07 12:46:47;;;;;;;;;;;;;;;13.82;100.00;100093.88;4973153;28;19933;-79
2021/06/07 12:49:22;;;;;;;;;;;;;;;13.77;100.00;100091.47;4972827;28;20217;-82
2021/06/07 12:51:57;;;;;;;;;;;;;;;13.97;100.00;100098.41;4975251;28;19926;-82
2021/06/07 12:54:23;;;;;;;;;;;;;;;14.03;100.00;100097.25;4976295;28;19936;-81
2021/06/07 12:56:49;;;;;;;;;;;;;;;13.87;100.00;100091.84;4973817;28;19922;-81
2021/06/07 12:59:14;;;;;;;;;;;;;;;13.79;100.00;100089.56;4952182;28;19930;-81
2021/06/07 13:01:41;;;;;;;;;;;;;;;13.82;100.00;100093.88;4973482;28;19926;-81
2021/06/07 13:04:07;;;;;;;;;;;;;;;13.92;100.00;100092.47;4972677;28;19922;-80
2021/06/07 13:06:43;;;;;;;;;;;;;;;13.88;100.00;100093.56;4960445;28;19922;-81
2021/06/07 13:09:08;;;;;;;;;;;;;;;13.78;100.00;100086.97;4960759;28;20221;-80
2021/06/07 13:11:34;;;;;;;;;;;;;;;13.78;100.00;100082.50;4970824;28;19937;-82
2021/06/07 13:14:03;;;;;;;;;;;;;;;13.87;100.00;100091.84;4966128;28;19934;-81
2021/06/07 13:16:33;;;;;;;;;;;;;;;13.73;100.00;100095.22;4973468;28;19976;-81
2021/06/07 13:19:07;;;;;;;;;;;;;;;13.73;100.00;100092.53;4960507;28;19926;-80
2021/06/07 13:21:36;;;;;;;;;;;;;;;13.78;100.00;100087.84;4959979;28;19973;-79
2021/06/07 13:24:02;;;;;;;;;;;;;;;13.69;100.00;100084.78;4959431;28;19929;-80
2021/06/07 13:26:29;;;;;;;;;;;;;;;13.76;100.00;100087.06;4959600;28;19922;-81
2021/06/07 13:29:12;;;;;;;;;;;;;;;13.68;100.00;100083.94;4974962;28;19981;-81
2021/06/07 13:31:58;;;;;;;;;;;;;;;13.84;100.00;100084.00;4974681;28;19964;-82
2021/06/07 13:34:29;;;;;;;;;;;;;;;13.82;100.00;100083.25;4970218;28;19918;-81
2021/06/07 13:37:05;;;;;;;;;;;;;;;13.75;100.00;100081.81;4977526;28;19948;-83
2021/06/07 13:39:30;;;;;;;;;;;;;;;13.70;100.00;100081.19;4958910;29;19926;-82
2021/06/07 13:41:56;;;;;;;;;;;;;;;13.92;100.00;100078.28;4967447;28;20017;-85
2021/06/07 13:44:21;;;;;;;;;;;;;;;13.96;100.00;100074.50;4963882;28;19965;-81
2021/06/07 13:46:47;;;;;;;;;;;;;;;13.89;100.00;100084.63;4978668;28;19930;-81
2021/06/07 13:49:16;;;;;;;;;;;;;;;13.96;100.00;100083.38;4979448;28;19922;-80
2021/06/07 13:51:42;;;;;;;;;;;;;;;13.85;100.00;100074.22;4974233;28;19922;-81
2021/06/07 13:54:09;;;;;;;;;;;;;;;13.98;100.00;100088.63;4960978;28;19940;-81
2021/06/07 13:56:36;;;;;;;;;;;;;;;13.83;100.00;100078.75;4963598;28;20198;-81
2021/06/07 13:59:01;;;;;;;;;;;;;;;14.00;100.00;100081.41;4979670;28;20017;-83
2021/06/07 14:01:34;;;;;;;;;;;;;;;13.86;100.00;100081.28;4963544;28;20021;-81
2021/06/07 14:04:02;;;;;;;;;;;;;;;13.82;100.00;100075.25;4978037;28;19922;-81
2021/06/07 14:06:30;;;;;;;;;;;;;;;13.78;100.00;100077.19;4963172;28;19977;-81
2021/06/07 14:08:57;;;;;;;;;;;;;;;13.78;100.00;100077.19;4980088;28;20046;-81
2021/06/07 14:11:23;;;;;;;;;;;;;;;13.91;100.00;100079.22;4972523;28;19933;-82
2021/06/07 14:13:54;;;;;;;;;;;;;;;13.86;100.00;100073.28;4979751;28;20016;-81
2021/06/07 14:16:19;;;;;;;;;;;;;;;14.05;100.00;100083.84;4977760;28;19937;-82
2021/06/07 14:18:45;;;;;;;;;;;;;;;14.06;100.00;100083.75;4980794;28;19926;-81
2021/06/07 14:21:15;;;;;;;;;;;;;;;13.77;100.00;100082.63;4979743;28;19926;-82
2021/06/07 14:26:25;;;;;;;;;;;;;;;13.98;100.00;100076.16;4980219;28;19933;-83
2021/06/07 14:28:51;;;;;;;;;;;;;;;13.94;100.00;100073.75;4963076;28;19922;-83
2021/06/07 14:31:18;;;;;;;;;;;;;;;13.89;100.00;100073.13;4979426;28;19953;-83
2021/06/07 14:33:43;;;;;;;;;;;;;;;13.98;100.00;100068.16;4974884;28;19976;-86
2021/06/07 14:36:16;;;;;;;;;;;;;;;13.96;100.00;100066.50;4961276;28;20005;-82
2021/06/07 14:38:42;;;;;;;;;;;;;;;13.95;100.00;100065.66;4978060;28;19930;-81
2021/06/07 14:41:09;;;;;;;;;;;;;;;14.07;100.00;100073.94;4963092;28;19922;-83
2021/06/07 14:43:36;;;;;;;;;;;;;;;14.12;100.00;100058.56;4975428;28;20290;-83
2021/06/07 14:46:02;;;;;;;;;;;;;;;14.01;100.00;100069.81;4977512;28;19926;-83
2021/06/07 14:48:28;;;;;;;;;;;;;;;14.13;100.00;100062.97;4974540;28;20204;-83
2021/06/07 14:50:54;;;;;;;;;;;;;;;14.15;100.00;100064.63;4957522;28;19929;-83
2021/06/07 14:53:22;;;;;;;;;;;;;;;14.15;100.00;100061.06;4961167;28;20568;-83
2021/06/07 14:55:48;;;;;;;;;;;;;;;14.05;100.00;100067.84;4976765;28;19957;-84
2021/06/07 14:58:14;;;;;;;;;;;;;;;14.07;100.00;100068.63;4977069;28;19930;-83
2021/06/07 15:00:40;;;;;;;;;;;;;;;13.98;100.00;100065.50;4978982;28;19922;-83
2021/06/07 15:03:05;;;;;;;;;;;;;;;14.00;100.00;100062.75;4975005;28;19932;-83
2021/06/07 15:05:31;;;;;;;;;;;;;;;14.11;100.00;100071.03;4973567;28;19953;-83
2021/06/07 15:07:57;;;;;;;;;;;;;;;14.07;100.00;100073.94;4975330;28;20009;-83
2021/06/07 15:10:22;;;;;;;;;;;;;;;14.15;100.00;100071.75;4976268;28;20601;-83
2021/06/07 15:12:52;;;;;;;;;;;;;;;13.97;100.00;100071.75;4958006;28;19932;-83
2021/06/07 15:15:19;;;;;;;;;;;;;;;14.03;100.00;100070.59;4979198;28;20369;-84
2021/06/07 15:17:45;;;;;;;;;;;;;;;14.02;100.00;100073.34;4971292;28;19957;-84
2021/06/07 15:20:12;;;;;;;;;;;;;;;13.87;100.00;100065.22;4972372;28;19934;-84
2021/06/07 15:22:40;;;;;;;;;;;;;;;13.98;100.00;100068.16;4964765;28;19933;-84
2021/06/07 15:25:06;;;;;;;;;;;;;;;13.80;100.00;100069.13;4969511;28;19922;-84
2021/06/07 15:27:34;;;;;;;;;;;;;;;13.91;100.00;100069.44;4961536;28;19929;-83
2021/06/07 15:30:08;;;;;;;;;;;;;;;13.89;100.00;100068.66;4962216;28;19929;-83
2021/06/07 15:32:35;;;;;;;;;;;;;;;14.01;100.00;100066.28;4972856;28;20457;-82
2021/06/07 15:35:22;;;;;;;;;;;;;;;13.96;100.00;100064.72;4972895;28;20225;-83
2021/06/07 15:37:48;;;;;;;;;;;;;;;13.86;100.00;100051.97;4976465;28;19926;-85
2021/06/07 15:40:13;;;;;;;;;;;;;;;13.95;100.00;100065.66;4972098;28;20025;-83
2021/06/07 15:42:38;;;;;;;;;;;;;;;14.10;100.00;100056.00;4953398;28;20201;-83
2021/06/07 15:45:04;;;;;;;;;;;;;;;14.09;100.00;100058.75;4952231;28;20013;-83
2021/06/07 15:47:29;;;;;;;;;;;;;;;13.93;100.00;100067.56;4950208;28;19940;-83
2021/06/07 15:49:58;;;;;;;;;;;;;;;14.03;100.00;100061.75;4952699;28;20362;-83
2021/06/07 15:52:23;;;;;;;;;;;;;;;14.05;100.00;100057.19;4972680;28;19926;-83
2021/06/07 15:54:49;;;;;;;;;;;;;;;14.11;100.00;100060.38;4969347;28;19929;-83
2021/06/07 15:57:15;;;;;;;;;;;;;;;14.16;100.00;100060.16;4967834;28;19926;-83
2021/06/07 15:59:41;;;;;;;;;;;;;;;14.14;100.00;100060.22;4973166;28;19926;-84
2021/06/07 16:02:08;;;;;;;;;;;;;;;14.25;100.00;100051.66;4975925;28;19922;-85
2021/06/07 16:04:34;;;;;;;;;;;;;;;14.07;100.00;100053.53;4970658;28;20072;-82
2021/06/07 16:07:00;;;;;;;;;;;;;;;13.88;100.00;100050.06;4961493;28;20330;-82
2021/06/07 16:09:26;;;;;;;;;;;;;;;13.95;100.00;100060.34;4959328;28;19930;-84
2021/06/07 16:11:52;;;;;;;;;;;;;;;13.91;100.00;100055.25;4956889;28;20008;-82
2021/06/07 16:14:19;;;;;;;;;;;;;;;14.13;100.00;100057.66;4972775;28;19922;-83
2021/06/07 16:16:49;;;;;;;;;;;;;;;13.90;100.00;100054.41;4968745;28;19930;-82
2021/06/07 16:19:16;;;;;;;;;;;;;;;14.03;100.00;100051.09;4972054;28;19934;-83
2021/06/07 16:21:42;;;;;;;;;;;;;;;13.97;100.00;100055.78;4974780;28;19957;-83
2021/06/07 16:24:07;;;;;;;;;;;;;;;14.03;100.00;100053.75;4972339;28;20008;-83
2021/06/07 16:26:33;;;;;;;;;;;;;;;13.99;100.00;100050.38;4971490;28;19922;-82
2021/06/07 16:28:59;;;;;;;;;;;;;;;13.97;100.00;100047.78;4980351;28;19925;-83
2021/06/07 16:31:26;;;;;;;;;;;;;;;14.04;100.00;100056.34;4972540;28;19931;-82
2021/06/07 16:33:52;;;;;;;;;;;;;;;13.89;100.00;100050.00;4969059;28;19926;-83
2021/06/07 16:36:20;;;;;;;;;;;;;;;13.95;100.00;100054.16;4974663;28;19977;-83
2021/06/07 16:38:46;;;;;;;;;;;;;;;13.86;100.00;100057.31;4975910;28;19941;-84
2021/06/07 16:41:12;;;;;;;;;;;;;;;13.98;100.00;100062.00;4955105;28;19922;-83
2021/06/07 16:43:37;;;;;;;;;;;;;;;14.00;100.00;100049.44;4954884;28;20005;-84
2021/06/07 16:46:03;;;;;;;;;;;;;;;14.01;100.00;100051.19;4959026;28;19958;-83
2021/06/07 16:48:29;;;;;;;;;;;;;;;13.98;100.00;100054.84;4971345;28;19941;-83
2021/06/07 16:50:54;;;;;;;;;;;;;;;14.04;100.00;100047.47;4970664;28;19930;-83
2021/06/07 16:53:20;;;;;;;;;;;;;;;14.01;100.00;100048.50;4978577;28;19934;-83
2021/06/07 16:55:46;;;;;;;;;;;;;;;13.92;100.00;100054.31;4956715;28;20519;-83
2021/06/07 16:58:12;;;;;;;;;;;;;;;13.89;100.00;100052.66;4967271;28;19930;-83
2021/06/07 17:00:39;;;;;;;;;;;;;;;13.92;100.00;100051.66;4971357;28;19954;-83
2021/06/07 17:03:04;;;;;;;;;;;;;;;13.93;100.00;100054.25;4966527;28;20226;-81
2021/06/07 17:05:30;;;;;;;;;;;;;;;13.89;100.00;100050.00;4954510;28;19922;-82
2021/06/07 17:07:56;;;;;;;;;;;;;;;13.87;100.00;100053.69;4974455;28;19930;-86
2021/06/07 17:10:23;;;;;;;;;;;;;;;13.97;100.00;100058.44;4971990;28;19930;-83
2021/06/07 17:12:50;;;;;;;;;;;;;;;14.16;100.00;100060.16;4982512;28;20073;-83
2021/06/07 17:15:23;;;;;;;;;;;;;;;14.07;100.00;100060.63;4956552;28;19922;-84
2021/06/07 17:17:49;;;;;;;;;;;;;;;14.06;100.00;100058.94;4974093;28;20021;-83
2021/06/07 17:20:14;;;;;;;;;;;;;;;14.12;100.00;100061.25;4972667;28;20413;-83
2021/06/07 17:22:40;;;;;;;;;;;;;;;14.01;100.00;100067.16;4972982;28;19926;-82
2021/06/07 17:25:05;;;;;;;;;;;;;;;13.97;100.00;100068.25;4977337;28;19918;-83
2021/06/07 17:27:31;;;;;;;;;;;;;;;13.93;100.00;100067.56;4975364;28;19923;-83
2021/06/07 17:29:56;;;;;;;;;;;;;;;13.91;100.00;100069.44;4976079;28;19922;-83
2021/06/07 17:32:22;;;;;;;;;;;;;;;13.93;100.00;100072.88;4975460;28;20270;-83
2021/06/07 17:34:48;;;;;;;;;;;;;;;13.90;100.00;100067.72;4973987;28;19933;-81
2021/06/07 17:37:14;;;;;;;;;;;;;;;13.79;100.00;100072.75;4974886;28;19930;-83
2021/06/07 17:39:41;;;;;;;;;;;;;;;13.90;100.00;100065.06;4955319;28;19927;-83
2021/06/07 17:42:07;;;;;;;;;;;;;;;13.95;100.00;100068.34;4973404;28;20420;-83
2021/06/07 17:44:33;;;;;;;;;;;;;;;13.90;100.00;100069.53;4974238;28;19930;-82
2021/06/07 17:46:58;;;;;;;;;;;;;;;14.05;100.00;100062.53;4959541;28;19930;-82
2021/06/07 17:49:24;;;;;;;;;;;;;;;13.99;100.00;100066.34;4972500;28;19930;-83
2021/06/07 17:51:50;;;;;;;;;;;;;;;13.91;100.00;100061.47;4954417;28;20307;-84
2021/06/07 17:54:16;;;;;;;;;;;;;;;13.82;100.00;100061.94;4955085;28;19923;-83
2021/06/07 17:56:41;;;;;;;;;;;;;;;13.93;100.00;100064.03;4972019;28;20183;-82
2021/06/07 17:59:07;;;;;;;;;;;;;;;13.90;100.00;100075.72;4975014;28;19934;-83
2021/06/07 18:01:32;;;;;;;;;;;;;;;13.97;100.00;100071.75;4971624;28;19997;-82
2021/06/07 18:04:00;;;;;;;;;;;;;;;13.79;100.00;100064.75;4975554;28;19922;-83
2021/06/07 18:06:27;;;;;;;;;;;;;;;13.99;100.00;100069.03;4973223;28;19965;-84
2021/06/07 18:08:52;;;;;;;;;;;;;;;13.96;100.00;100074.50;4970350;28;19923;-83
2021/06/07 18:11:17;;;;;;;;;;;;;;;14.13;100.00;100065.63;4973816;28;19933;-83
2021/06/07 18:13:43;;;;;;;;;;;;;;;14.02;100.00;100068.00;4974331;28;19934;-83
2021/06/07 18:16:10;;;;;;;;;;;;;;;14.02;100.00;100076.00;4973258;28;20229;-84
2021/06/07 18:18:36;;;;;;;;;;;;;;;13.91;100.00;100065.91;4955883;28;19941;-82
2021/06/07 18:21:02;;;;;;;;;;;;;;;13.96;100.00;100070.06;4971829;28;19926;-82
2021/06/07 18:23:34;;;;;;;;;;;;;;;13.91;100.00;100068.56;4972956;28;19921;-82
2021/06/07 18:26:00;;;;;;;;;;;;;;;13.95;100.00;100065.66;4955707;28;19981;-83
2021/06/07 18:28:27;;;;;;;;;;;;;;;14.01;100.00;100075.16;4968692;28;19922;-83
2021/06/07 18:30:53;;;;;;;;;;;;;;;13.92;100.00;100068.50;4968337;28;20325;-85
2021/06/07 18:33:19;;;;;;;;;;;;;;;13.93;100.00;100069.38;4979212;28;19925;-83
2021/06/07 18:35:45;;;;;;;;;;;;;;;13.84;100.00;100070.69;4981161;28;19954;-82
2021/06/07 18:38:10;;;;;;;;;;;;;;;13.84;100.00;100068.03;4975693;28;20028;-83
2021/06/07 18:40:35;;;;;;;;;;;;;;;13.73;100.00;100073.91;4974083;28;20253;-82
2021/06/07 18:43:02;;;;;;;;;;;;;;;13.86;100.00;100078.59;4975355;28;20473;-82
2021/06/07 18:45:27;;;;;;;;;;;;;;;13.81;100.00;100078.84;4979376;28;20005;-83
2021/06/07 18:47:53;;;;;;;;;;;;;;;13.75;100.00;100079.16;4977033;28;20017;-83
2021/06/07 18:50:19;;;;;;;;;;;;;;;13.76;100.00;100084.41;4958079;28;19950;-83
2021/06/07 18:52:51;;;;;;;;;;;;;;;13.72;100.00;100082.84;4972993;28;20301;-83
2021/06/07 18:55:17;;;;;;;;;;;;;;;13.76;100.00;100083.56;4972665;28;19918;-83
2021/06/07 18:57:42;;;;;;;;;;;;;;;13.76;100.00;100084.41;4972711;28;20014;-83
2021/06/07 19:00:08;;;;;;;;;;;;;;;13.79;100.00;100083.41;4971602;28;20458;-82